createdAt,value
2019-05-30T00:02:06.355Z,2.95
2019-05-30T00:07:11.443Z,2.8
2019-05-30T00:12:06.435Z,2.6
2019-05-30T00:17:07.118Z,2.71
2019-05-30T00:22:06.728Z,2.8
2019-05-30T00:27:07.528Z,2.71
2019-05-30T00:32:06.107Z,2.49
2019-05-30T00:37:07.137Z,2.36
2019-05-30T00:41:06.281Z,2.29
2019-05-30T00:46:06.589Z,2.35
2019-05-30T00:51:06.770Z,2.38
2019-05-30T00:56:06.822Z,2.43
2019-05-30T01:01:07.092Z,2.17
2019-05-30T01:06:09.432Z,1.98
2019-05-30T01:11:08.561Z,2.42
2019-05-30T01:15:07.968Z,2.56
2019-05-30T01:20:07.428Z,2.6
2019-05-30T01:25:07.807Z,2.42
2019-05-30T01:30:07.897Z,2.51
2019-05-30T01:35:07.907Z,1.32
2019-05-30T01:40:08.436Z,1.09
2019-05-30T01:45:08.458Z,1.03
2019-05-30T01:50:06.530Z,1.35
2019-05-30T01:55:06.637Z,2.26
2019-05-30T02:00:16.220Z,2.21
2019-05-30T02:04:07.368Z,2.16
2019-05-30T02:09:09.200Z,2.31
2019-05-30T02:14:07.638Z,2.09
2019-05-30T02:19:10.403Z,2.01
2019-05-30T02:24:06.238Z,1.97
2019-05-30T02:29:08.263Z,1.98
2019-05-30T02:34:07.481Z,1.72
2019-05-30T02:39:11.885Z,1.54
2019-05-30T02:44:07.604Z,1.39
2019-05-30T02:49:14.104Z,1.1
2019-05-30T02:53:07.523Z,0.95
2019-05-30T02:58:08.138Z,0.89
2019-05-30T03:03:09.117Z,0.77
2019-05-30T03:08:14.818Z,1.33
2019-05-30T03:13:06.361Z,1.72
2019-05-30T03:18:12.737Z,1.75
2019-05-30T03:23:08.271Z,1.8
2019-05-30T03:27:06.936Z,1.63
2019-05-30T03:32:38.451Z,1.54
2019-05-30T03:37:10.209Z,2.07
2019-05-30T03:42:06.901Z,2.29
2019-05-30T03:47:06.823Z,2.32
2019-05-30T03:52:07.962Z,2.21
2019-05-30T03:57:07.358Z,2.17
2019-05-30T04:02:08.919Z,2.82
2019-05-30T04:06:07.216Z,3.41
2019-05-30T04:11:07.491Z,3.63
2019-05-30T04:16:06.892Z,3.83
2019-05-30T04:21:08.503Z,3.77
2019-05-30T04:26:07.382Z,4.23
2019-05-30T04:31:05.969Z,5.38
2019-05-30T04:36:07.929Z,7.32
2019-05-30T04:41:06.061Z,9.46
2019-05-30T04:46:06.148Z,10.36
2019-05-30T04:51:06.539Z,11.47
2019-05-30T04:56:06.768Z,12.46
2019-05-30T05:01:07.663Z,12.82
2019-05-30T05:05:06.452Z,12.74
2019-05-30T05:10:05.988Z,12.63
2019-05-30T05:15:07.714Z,11.63
2019-05-30T05:20:06.531Z,10.55
2019-05-30T05:25:06.796Z,10.98
2019-05-30T05:30:07.551Z,11.59
2019-05-30T05:35:06.081Z,11.79
2019-05-30T05:40:06.814Z,12.47
2019-05-30T05:45:07.293Z,13.06
2019-05-30T05:50:06.554Z,13.19
2019-05-30T05:54:06.729Z,12.84
2019-05-30T05:55:06.004Z,12.84
2019-05-30T05:59:06.416Z,12.79
2019-05-30T06:04:12.929Z,14.39
2019-05-30T06:09:07.315Z,15.85
2019-05-30T06:14:06.510Z,16.45
2019-05-30T06:19:06.550Z,17.26
2019-05-30T06:24:06.774Z,17.2
2019-05-30T06:29:06.047Z,17.63
2019-05-30T06:33:05.913Z,16.94
2019-05-30T06:43:06.633Z,17.21
2019-05-30T06:48:06.728Z,17.03
2019-05-30T06:53:06.392Z,16.75
2019-05-30T06:58:06.677Z,16.78
2019-05-30T07:03:06.375Z,17.8
2019-05-30T07:08:07.232Z,18.26
2019-05-30T07:13:06.077Z,18.71
2019-05-30T07:17:07.264Z,18.36
2019-05-30T07:22:06.904Z,18.84
2019-05-30T07:27:06.131Z,18.76
2019-05-30T07:32:06.534Z,19.18
2019-05-30T07:37:06.844Z,19.81
2019-05-30T07:42:07.562Z,19.82
2019-05-30T07:47:06.137Z,20.19
2019-05-30T07:51:06.517Z,20.05
2019-05-30T07:56:06.752Z,19.61
2019-05-30T08:01:07.119Z,19.71
2019-05-30T08:06:07.294Z,20.2
2019-05-30T08:11:09.714Z,20.51
2019-05-30T08:16:07.459Z,20.3
2019-05-30T08:21:06.092Z,19.87
2019-05-30T08:25:06.440Z,20.05
2019-05-30T08:30:08.319Z,20.47
2019-05-30T08:35:06.708Z,20.96
2019-05-30T08:40:06.408Z,21.16
2019-05-30T08:45:09.733Z,21.35
2019-05-30T08:50:06.107Z,20.75
2019-05-30T08:55:06.255Z,21.14
2019-05-30T09:00:09.331Z,20.56
2019-05-30T09:04:06.820Z,20.7
2019-05-30T09:09:06.994Z,21.25
2019-05-30T09:14:06.631Z,20.33
2019-05-30T09:19:06.694Z,20.99
2019-05-30T09:24:06.364Z,20.87
2019-05-30T09:29:07.327Z,20.93
2019-05-30T09:34:05.972Z,22.18
2019-05-30T09:38:07.547Z,21.35
2019-05-30T09:43:06.532Z,20.43
2019-05-30T09:48:07.191Z,22.19
2019-05-30T09:53:06.810Z,22.22
2019-05-30T09:58:06.698Z,21.2
2019-05-30T10:03:06.545Z,21.57
2019-05-30T10:08:06.636Z,21.47
2019-05-30T10:12:06.388Z,22.22
2019-05-30T10:17:07.194Z,23.52
2019-05-30T10:22:06.784Z,23.25
2019-05-30T10:27:06.712Z,21.98
2019-05-30T10:32:06.069Z,22.05
2019-05-30T10:37:06.248Z,21.88
2019-05-30T10:42:06.809Z,20.76
2019-05-30T10:47:06.558Z,22.19
2019-05-30T10:51:06.001Z,22.11
2019-05-30T10:56:06.293Z,22.87
2019-05-30T11:01:06.724Z,22.93
2019-05-30T11:06:06.358Z,23.86
2019-05-30T11:11:06.186Z,22.35
2019-05-30T11:16:06.057Z,22.12
2019-05-30T11:21:06.392Z,23.17
2019-05-30T11:25:06.791Z,23.36
2019-05-30T11:30:07.625Z,22.58
2019-05-30T11:35:06.359Z,23.71
2019-05-30T11:40:06.663Z,23.72
2019-05-30T11:45:08.032Z,24.3
2019-05-30T11:50:06.263Z,24.51
2019-05-30T11:55:07.167Z,22.94
2019-05-30T12:00:08.606Z,24.26
2019-05-30T12:04:07.319Z,24.06
2019-05-30T12:09:06.739Z,23.46
2019-05-30T12:14:06.196Z,24.04
2019-05-30T12:19:06.984Z,23.55
2019-05-30T12:24:06.601Z,24.03
2019-05-30T12:29:06.566Z,23.83
2019-05-30T12:34:06.209Z,24.69
2019-05-30T12:39:07.708Z,23.62
2019-05-30T12:43:06.441Z,23.55
2019-05-30T12:48:06.721Z,24.89
2019-05-30T12:53:06.306Z,25.13
2019-05-30T12:58:07.156Z,23.73
2019-05-30T13:03:07.237Z,23.7
2019-05-30T13:08:17.258Z,24.71
2019-05-30T13:13:06.488Z,23.6
2019-05-30T13:18:07.142Z,23.69
2019-05-30T13:22:08.393Z,23.87
2019-05-30T13:27:06.893Z,23.79
2019-05-30T13:32:07.398Z,24.26
2019-05-30T13:37:07.066Z,23.9
2019-05-30T13:42:07.764Z,24.11
2019-05-30T13:47:06.678Z,24.88
2019-05-30T13:52:09.494Z,24.14
2019-05-30T13:57:06.082Z,25.01
2019-05-30T14:02:06.263Z,24.59
2019-05-30T14:07:06.817Z,24.69
2019-05-30T14:11:08.621Z,24.59
2019-05-30T14:16:06.861Z,24.68
2019-05-30T14:21:09.593Z,25.25
2019-05-30T14:26:07.296Z,25.1
2019-05-30T14:31:08.802Z,23.7
2019-05-30T14:36:08.121Z,23.25
2019-05-30T14:41:08.730Z,24.17
2019-05-30T14:46:06.532Z,23.17
2019-05-30T14:50:08.553Z,23.52
2019-05-30T14:55:06.776Z,23.02
2019-05-30T15:00:09.253Z,22.53
2019-05-30T15:05:07.361Z,22.78
2019-05-30T15:10:06.579Z,22.42
2019-05-30T15:15:09.701Z,22.76
2019-05-30T15:20:07.358Z,22.8
2019-05-30T15:24:07.683Z,22.92
2019-05-30T15:29:07.922Z,22.86
2019-05-30T15:34:06.642Z,22.94
2019-05-30T15:39:08.603Z,23.36
2019-05-30T15:44:07.401Z,23.94
2019-05-30T15:49:08.567Z,23.67
2019-05-30T15:54:06.331Z,24
2019-05-30T15:59:07.159Z,23.32
2019-05-30T16:04:06.099Z,22.37
2019-05-30T16:08:07.409Z,22.2
2019-05-30T16:13:06.441Z,22.44
2019-05-30T16:18:07.167Z,22.63
2019-05-30T16:23:06.708Z,22.51
2019-05-30T16:28:07.574Z,22.14
2019-05-30T16:33:06.049Z,21.63
2019-05-30T16:37:06.973Z,21.49
2019-05-30T16:42:06.557Z,21.46
2019-05-30T16:47:05.931Z,21.45
2019-05-30T16:52:06.175Z,21.44
2019-05-30T16:57:06.322Z,21.48
2019-05-30T17:02:07.045Z,21.24
2019-05-30T17:07:06.639Z,20.79
2019-05-30T17:12:06.705Z,20.68
2019-05-30T17:16:06.816Z,20.45
2019-05-30T17:21:06.072Z,20.41
2019-05-30T17:26:06.209Z,20.04
2019-05-30T17:31:06.422Z,19.9
2019-05-30T17:36:06.626Z,20.34
2019-05-30T17:41:06.223Z,20.51
2019-05-30T17:45:08.463Z,20.6
2019-05-30T17:50:06.460Z,20.43
2019-05-30T17:55:06.767Z,20.31
2019-05-30T18:00:09.489Z,20.03
2019-05-30T18:05:06.474Z,19.97
2019-05-30T18:10:06.672Z,19.88
2019-05-30T18:15:07.411Z,19.79
2019-05-30T18:19:06.631Z,19.53
2019-05-30T18:24:06.827Z,19.17
2019-05-30T18:29:06.096Z,18.92
2019-05-30T18:34:06.262Z,18.66
2019-05-30T18:39:06.993Z,18.52
2019-05-30T18:44:06.216Z,18.35
2019-05-30T18:49:06.334Z,18.36
2019-05-30T18:54:07.170Z,18.17
2019-05-30T18:58:07.504Z,17.88
2019-05-30T19:03:07.112Z,17.53
2019-05-30T19:08:06.662Z,17.29
2019-05-30T19:13:08.263Z,16.89
2019-05-30T19:18:09.075Z,16.65
2019-05-30T19:23:06.419Z,16.57
2019-05-30T19:28:07.212Z,16.44
2019-05-30T19:33:06.668Z,16.32
2019-05-30T19:37:06.776Z,16.5
2019-05-30T19:38:06.090Z,16.5
2019-05-30T19:42:06.895Z,16.49
2019-05-30T19:47:06.193Z,16.41
2019-05-30T19:48:06.722Z,16.41
2019-05-30T19:52:06.474Z,16.27
2019-05-30T19:57:06.862Z,15.93
2019-05-30T20:02:06.546Z,15.83
2019-05-30T20:07:06.691Z,15.91
2019-05-30T20:12:08.736Z,15.81
2019-05-30T20:17:06.099Z,15.86
2019-05-30T20:22:06.234Z,15.77
2019-05-30T20:26:07.099Z,15.85
2019-05-30T20:27:06.042Z,15.85
2019-05-30T20:31:07.077Z,15.97
2019-05-30T20:36:06.868Z,16.05
2019-05-30T20:41:07.228Z,16.12
2019-05-30T20:46:20.252Z,16.21
2019-05-30T20:51:21.648Z,16.21
2019-05-30T20:56:06.687Z,16
2019-05-30T21:01:06.917Z,15.77
2019-05-30T21:05:06.612Z,15.52
2019-05-30T21:11:06.338Z,15.3
2019-05-30T21:15:08.731Z,15.14
2019-05-30T21:16:06.041Z,15.14
2019-05-30T21:20:12.351Z,14.96
2019-05-30T21:25:05.918Z,14.82
2019-05-30T21:30:08.045Z,14.75
2019-05-30T21:35:06.373Z,14.72
2019-05-30T21:40:06.918Z,14.57
2019-05-30T21:45:07.838Z,14.41
2019-05-30T21:50:07.334Z,14.24
2019-05-30T21:54:05.890Z,14.1
2019-05-30T22:04:06.547Z,13.8
2019-05-30T22:09:07.738Z,13.66
2019-05-30T22:14:06.838Z,13.58
2019-05-30T22:19:07.700Z,13.62
2019-05-30T22:24:06.228Z,13.69
2019-05-30T22:29:07.034Z,13.84
2019-05-30T22:34:06.861Z,14.07
2019-05-30T22:39:09.980Z,14.34
2019-05-30T22:44:06.499Z,14.51
2019-05-30T22:49:07.797Z,14.54
2019-05-30T22:53:07.232Z,14.6
2019-05-30T22:58:06.429Z,14.67
2019-05-30T23:03:06.397Z,14.74
2019-05-30T23:08:07.165Z,14.82
2019-05-30T23:13:06.264Z,14.84
2019-05-30T23:18:06.869Z,14.85
2019-05-30T23:23:06.427Z,14.95
2019-05-30T23:28:07.203Z,14.86
2019-05-30T23:33:06.894Z,14.85
2019-05-30T23:37:05.988Z,14.89
2019-05-30T23:42:07.462Z,14.93
2019-05-30T23:47:06.568Z,14.95
2019-05-30T23:52:07.843Z,14.95
2019-05-30T23:57:06.098Z,14.96
